Time;durP1;ratioP1;P1;durP2;ratioP2;P2;SDS_P1;SDS_P2;PMS_P1;PMS_P2;Temp;Humidity;BMP_temperature;BMP_pressure;BME280_temperature;BME280_humidity;BME280_pressure;Samples;Min_cycle;Max_cycle;Signal;HPM_P1;HPM_P2
2023/10/27 00:00:53;;;;;;;3.83;2.30;;;;;;;;;;5004880;28;20037;-81
2023/10/27 00:03:18;;;;;;;4.95;2.35;;;;;;;;;;5005497;28;20100;-81
2023/10/27 00:05:44;;;;;;;2.65;2.03;;;;;;;;;;5014404;28;20537;-80
2023/10/27 00:08:09;;;;;;;2.30;2.08;;;;;;;;;;5014474;28;20042;-83
2023/10/27 00:10:37;;;;;;;3.78;2.58;;;;;;;;;;5022809;28;20361;-82
2023/10/27 00:13:03;;;;;;;2.90;2.53;;;;;;;;;;5019534;28;20034;-81
2023/10/27 00:15:28;;;;;;;2.58;2.38;;;;;;;;;;5038858;28;20116;-86
2023/10/27 00:17:56;;;;;;;3.53;2.63;;;;;;;;;;5029494;28;20114;-87
2023/10/27 00:20:22;;;;;;;5.18;2.83;;;;;;;;;;5015162;28;20038;-86
2023/10/27 00:22:47;;;;;;;4.68;2.92;;;;;;;;;;5002477;28;20050;-86
2023/10/27 00:25:13;;;;;;;5.47;3.17;;;;;;;;;;5005200;28;20033;-86
2023/10/27 00:27:38;;;;;;;4.43;2.47;;;;;;;;;;5013999;28;20073;-83
2023/10/27 00:30:04;;;;;;;3.72;2.30;;;;;;;;;;5026830;28;20119;-82
2023/10/27 00:32:29;;;;;;;6.13;3.05;;;;;;;;;;5029758;28;20033;-83
2023/10/27 00:34:55;;;;;;;4.95;3.90;;;;;;;;;;5030972;28;20100;-86
2023/10/27 00:37:20;;;;;;;8.18;4.65;;;;;;;;;;5030116;28;20048;-85
2023/10/27 00:39:45;;;;;;;11.55;5.30;;;;;;;;;;5025188;28;20034;-83
2023/10/27 00:42:10;;;;;;;32.95;5.63;;;;;;;;;;5029122;28;20048;-82
2023/10/27 00:44:36;;;;;;;21.38;5.07;;;;;;;;;;5043535;28;20025;-81
2023/10/27 00:47:01;;;;;;;11.63;4.97;;;;;;;;;;5031352;28;20073;-80
2023/10/27 00:49:28;;;;;;;6.38;3.88;;;;;;;;;;5023528;28;20030;-82
2023/10/27 00:51:53;;;;;;;12.93;4.60;;;;;;;;;;5008399;28;20413;-83
2023/10/27 00:54:20;;;;;;;7.50;3.80;;;;;;;;;;5014348;28;20034;-83
2023/10/27 00:56:47;;;;;;;10.80;3.50;;;;;;;;;;5016244;28;20021;-82
2023/10/27 00:59:13;;;;;;;6.80;3.00;;;;;;;;;;5015306;28;20381;-84
2023/10/27 01:01:41;;;;;;;3.55;2.72;;;;;;;;;;5030892;28;20053;-83
2023/10/27 01:04:07;;;;;;;2.90;2.30;;;;;;;;;;5025288;28;20259;-83
2023/10/27 01:06:32;;;;;;;1.80;1.70;;;;;;;;;;5025946;28;20064;-83
2023/10/27 01:08:57;;;;;;;31.48;2.20;;;;;;;;;;5021763;28;20038;-83
2023/10/27 01:11:24;;;;;;;3.40;1.35;;;;;;;;;;5012449;28;20041;-82
2023/10/27 01:13:51;;;;;;;10.63;1.38;;;;;;;;;;5013383;28;20040;-81
2023/10/27 01:16:16;;;;;;;2.30;1.17;;;;;;;;;;5011769;28;20128;-83
2023/10/27 01:18:41;;;;;;;1.20;1.20;;;;;;;;;;5011887;28;20085;-81
2023/10/27 01:21:06;;;;;;;2.50;1.10;;;;;;;;;;5021309;28;20076;-83
2023/10/27 01:23:32;;;;;;;1.77;1.20;;;;;;;;;;5022301;28;20524;-83
2023/10/27 01:25:57;;;;;;;1.85;1.05;;;;;;;;;;5022090;28;20037;-82
2023/10/27 01:28:22;;;;;;;5.53;1.40;;;;;;;;;;5023915;28;20079;-80
2023/10/27 01:30:49;;;;;;;6.72;1.45;;;;;;;;;;5024597;28;20048;-82
2023/10/27 01:33:14;;;;;;;3.13;1.45;;;;;;;;;;5016408;28;20038;-81
2023/10/27 01:35:39;;;;;;;1.35;1.25;;;;;;;;;;5022027;28;20055;-83
2023/10/27 01:38:05;;;;;;;1.23;1.20;;;;;;;;;;5026333;28;20034;-82
2023/10/27 01:40:30;;;;;;;2.20;1.50;;;;;;;;;;5018012;28;20034;-82
2023/10/27 01:42:56;;;;;;;1.60;1.50;;;;;;;;;;5027333;28;20033;-82
2023/10/27 01:45:21;;;;;;;2.25;1.70;;;;;;;;;;5023087;28;20044;-82
2023/10/27 01:47:46;;;;;;;1.70;1.60;;;;;;;;;;5024787;28;20024;-81
2023/10/27 01:50:12;;;;;;;2.17;1.60;;;;;;;;;;5011238;28;20121;-81
2023/10/27 01:52:37;;;;;;;1.65;1.55;;;;;;;;;;5015252;28;20034;-81
2023/10/27 01:55:03;;;;;;;1.60;1.50;;;;;;;;;;5018479;28;20053;-81
2023/10/27 01:57:28;;;;;;;3.83;2.08;;;;;;;;;;5016035;28;20048;-82
2023/10/27 01:59:53;;;;;;;3.80;2.10;;;;;;;;;;5016831;28;20150;-83
2023/10/27 02:02:19;;;;;;;11.57;2.20;;;;;;;;;;5020863;28;20502;-82
2023/10/27 02:04:45;;;;;;;2.30;1.95;;;;;;;;;;5015579;28;20046;-82
2023/10/27 02:07:10;;;;;;;2.83;2.25;;;;;;;;;;5018910;28;20104;-82
2023/10/27 02:09:36;;;;;;;2.33;2.00;;;;;;;;;;5018412;28;20041;-81
2023/10/27 02:12:02;;;;;;;2.13;1.95;;;;;;;;;;5023152;28;20048;-82
2023/10/27 02:14:28;;;;;;;2.72;2.15;;;;;;;;;;5024013;28;20041;-82
2023/10/27 02:16:53;;;;;;;2.78;2.33;;;;;;;;;;5021112;28;20580;-82
2023/10/27 02:19:19;;;;;;;2.67;2.30;;;;;;;;;;5022757;28;20033;-83
2023/10/27 02:21:45;;;;;;;2.88;2.42;;;;;;;;;;5008264;28;20073;-83
2023/10/27 02:24:11;;;;;;;3.28;2.60;;;;;;;;;;5016819;28;20033;-83
2023/10/27 02:26:36;;;;;;;2.88;2.22;;;;;;;;;;5016411;28;20049;-83
2023/10/27 02:29:02;;;;;;;3.00;2.30;;;;;;;;;;5016655;28;20123;-85
2023/10/27 02:31:28;;;;;;;2.55;2.20;;;;;;;;;;5022037;28;20112;-84
2023/10/27 02:33:53;;;;;;;4.93;2.75;;;;;;;;;;5012062;28;20050;-83
2023/10/27 02:36:19;;;;;;;5.07;2.58;;;;;;;;;;5022832;28;20544;-83
2023/10/27 02:38:44;;;;;;;4.03;2.60;;;;;;;;;;5019366;28;20086;-83
2023/10/27 02:41:11;;;;;;;2.50;2.30;;;;;;;;;;5020840;28;20038;-81
2023/10/27 02:43:37;;;;;;;2.50;2.30;;;;;;;;;;5022431;28;20034;-82
2023/10/27 02:46:04;;;;;;;9.95;2.70;;;;;;;;;;5022232;28;20037;-81
2023/10/27 02:48:30;;;;;;;52.88;4.70;;;;;;;;;;5018369;28;20041;-80
2023/10/27 02:50:55;;;;;;;137.55;8.18;;;;;;;;;;5024512;28;20040;-83
2023/10/27 02:53:20;;;;;;;16.67;2.92;;;;;;;;;;5015854;28;20104;-83
2023/10/27 02:55:46;;;;;;;256.92;12.77;;;;;;;;;;5024355;28;20040;-81
2023/10/27 02:58:12;;;;;;;76.53;3.55;;;;;;;;;;5024115;28;20072;-83
2023/10/27 03:00:44;;;;;;;2.33;1.90;;;;;;;;;;5009072;28;20061;-82
2023/10/27 03:03:10;;;;;;;3.78;1.90;;;;;;;;;;5015997;28;20061;-84
2023/10/27 03:05:36;;;;;;;3.10;1.60;;;;;;;;;;5013864;28;20481;-84
2023/10/27 03:08:01;;;;;;;2.50;1.92;;;;;;;;;;5015002;28;20034;-85
2023/10/27 03:10:27;;;;;;;5.90;1.48;;;;;;;;;;5015301;28;20045;-85
2023/10/27 03:12:52;;;;;;;22.77;2.40;;;;;;;;;;5020391;28;20307;-84
2023/10/27 03:15:17;;;;;;;2.22;1.23;;;;;;;;;;5022680;28;20029;-83
2023/10/27 03:17:43;;;;;;;9.00;1.50;;;;;;;;;;5017666;28;20029;-83
2023/10/27 03:20:08;;;;;;;3.28;1.20;;;;;;;;;;5019203;28;20050;-84
2023/10/27 03:22:34;;;;;;;1.65;1.40;;;;;;;;;;5022199;28;20053;-82
2023/10/27 03:25:01;;;;;;;1.27;1.20;;;;;;;;;;5025313;28;20030;-83
2023/10/27 03:27:26;;;;;;;5.45;1.50;;;;;;;;;;5025322;28;20045;-83
2023/10/27 03:29:51;;;;;;;4.40;1.70;;;;;;;;;;5038149;28;20041;-85
2023/10/27 03:32:17;;;;;;;3.97;1.60;;;;;;;;;;5030917;28;20562;-84
2023/10/27 03:34:46;;;;;;;5.20;1.48;;;;;;;;;;5034848;28;20042;-84
2023/10/27 03:37:12;;;;;;;1.58;1.48;;;;;;;;;;5034760;28;20048;-81
2023/10/27 03:39:38;;;;;;;1.40;1.30;;;;;;;;;;5030149;28;20041;-85
2023/10/27 03:42:04;;;;;;;1.73;1.20;;;;;;;;;;5034596;28;20029;-84
2023/10/27 03:44:29;;;;;;;1.10;1.10;;;;;;;;;;5035153;28;20026;-82
2023/10/27 03:46:54;;;;;;;1.50;1.40;;;;;;;;;;5031154;28;20049;-84
2023/10/27 03:49:19;;;;;;;2.20;1.30;;;;;;;;;;5029630;28;20057;-84
2023/10/27 03:51:45;;;;;;;1.40;1.30;;;;;;;;;;5019918;28;20029;-82
2023/10/27 03:54:10;;;;;;;0.82;0.82;;;;;;;;;;5016934;28;20096;-84
2023/10/27 03:56:35;;;;;;;1.13;1.13;;;;;;;;;;5017509;28;20022;-84
2023/10/27 03:59:01;;;;;;;1.17;1.05;;;;;;;;;;5020303;28;20034;-84
2023/10/27 04:01:27;;;;;;;0.90;0.90;;;;;;;;;;5025415;28;20041;-85
2023/10/27 04:03:56;;;;;;;1.20;1.10;;;;;;;;;;5028719;28;20547;-83
2023/10/27 04:06:21;;;;;;;1.30;1.20;;;;;;;;;;5030414;28;20029;-84
2023/10/27 04:08:47;;;;;;;3.45;1.10;;;;;;;;;;5026458;28;20164;-84
2023/10/27 04:11:12;;;;;;;1.00;1.00;;;;;;;;;;5019815;28;20060;-83
2023/10/27 04:13:38;;;;;;;1.15;1.08;;;;;;;;;;5018489;28;20050;-83
2023/10/27 04:16:03;;;;;;;1.15;1.15;;;;;;;;;;5013099;28;20129;-83
2023/10/27 04:18:29;;;;;;;1.05;0.90;;;;;;;;;;5021107;28;20402;-85
2023/10/27 04:20:54;;;;;;;1.55;1.17;;;;;;;;;;5030134;28;20021;-83
2023/10/27 04:23:19;;;;;;;1.00;1.00;;;;;;;;;;5024713;28;20069;-87
2023/10/27 04:25:45;;;;;;;1.63;1.48;;;;;;;;;;5027040;28;20043;-86
2023/10/27 04:28:10;;;;;;;3.35;2.10;;;;;;;;;;5014962;28;20034;-86
2023/10/27 04:30:36;;;;;;;4.30;1.90;;;;;;;;;;5021819;28;20171;-82
2023/10/27 04:33:04;;;;;;;3.50;2.38;;;;;;;;;;5030294;28;20051;-81
2023/10/27 04:35:29;;;;;;;2.92;2.00;;;;;;;;;;5031409;28;20122;-82
2023/10/27 04:37:56;;;;;;;6.53;2.28;;;;;;;;;;5026642;28;20371;-84
2023/10/27 04:40:22;;;;;;;3.10;2.30;;;;;;;;;;5025877;28;20046;-86
2023/10/27 04:42:48;;;;;;;2.97;1.90;;;;;;;;;;5039669;28;20034;-86
2023/10/27 04:45:13;;;;;;;2.83;2.00;;;;;;;;;;5027959;28;20075;-85
2023/10/27 04:47:39;;;;;;;2.00;1.80;;;;;;;;;;5023154;28;20032;-85
2023/10/27 04:50:05;;;;;;;5.53;1.80;;;;;;;;;;5030539;28;20056;-85
2023/10/27 04:52:30;;;;;;;1.95;1.80;;;;;;;;;;5010492;28;20033;-83
2023/10/27 04:55:19;;;;;;;1.88;1.50;;;;;;;;;;5022709;28;20121;-85
2023/10/27 04:57:45;;;;;;;1.88;1.40;;;;;;;;;;5025286;28;20033;-83
2023/10/27 05:00:13;;;;;;;4.53;1.90;;;;;;;;;;5019736;28;20035;-83
2023/10/27 05:02:39;;;;;;;33.92;3.63;;;;;;;;;;5023595;28;20600;-83
2023/10/27 05:05:05;;;;;;;6.18;1.92;;;;;;;;;;5028898;28;20069;-84
2023/10/27 05:07:30;;;;;;;83.20;6.40;;;;;;;;;;5025196;28;20041;-83
2023/10/27 05:09:55;;;;;;;2.13;1.60;;;;;;;;;;5024966;28;20042;-83
2023/10/27 05:12:20;;;;;;;4.32;1.20;;;;;;;;;;5026547;28;20025;-83
2023/10/27 05:14:46;;;;;;;1.33;1.23;;;;;;;;;;5021109;28;20048;-83
2023/10/27 05:17:13;;;;;;;0.95;0.95;;;;;;;;;;5025412;28;20030;-84
2023/10/27 05:19:38;;;;;;;1.70;0.80;;;;;;;;;;5019562;28;20044;-86
2023/10/27 05:22:05;;;;;;;0.60;0.60;;;;;;;;;;5022944;28;20037;-85
2023/10/27 05:24:32;;;;;;;0.60;0.60;;;;;;;;;;5030188;28;20034;-84
2023/10/27 05:26:57;;;;;;;0.82;0.82;;;;;;;;;;5033935;28;20028;-86
2023/10/27 05:29:22;;;;;;;0.60;0.60;;;;;;;;;;5017611;28;20038;-86
2023/10/27 05:31:48;;;;;;;3.10;0.75;;;;;;;;;;5019270;28;20169;-86
2023/10/27 05:34:15;;;;;;;1.02;0.93;;;;;;;;;;5018828;28;20038;-85
2023/10/27 05:36:41;;;;;;;2.00;0.73;;;;;;;;;;5020975;28;20050;-82
2023/10/27 05:39:06;;;;;;;2.40;0.90;;;;;;;;;;5032128;28;20037;-87
2023/10/27 05:41:31;;;;;;;1.20;0.93;;;;;;;;;;5027795;28;20041;-86
2023/10/27 05:43:56;;;;;;;0.80;0.80;;;;;;;;;;5039868;28;20034;-86
2023/10/27 05:46:22;;;;;;;2.10;0.95;;;;;;;;;;5034097;28;20041;-85
2023/10/27 05:48:47;;;;;;;1.00;0.73;;;;;;;;;;5033908;28;20029;-82
2023/10/27 05:51:12;;;;;;;0.90;0.90;;;;;;;;;;5027387;28;20101;-86
2023/10/27 05:53:38;;;;;;;0.95;0.77;;;;;;;;;;5042126;28;20078;-86
2023/10/27 05:56:04;;;;;;;0.63;0.60;;;;;;;;;;5040340;28;20065;-86
2023/10/27 05:58:32;;;;;;;0.85;0.85;;;;;;;;;;5042658;28;20037;-86
2023/10/27 06:00:59;;;;;;;0.60;0.60;;;;;;;;;;5032683;28;20034;-85
2023/10/27 06:03:24;;;;;;;0.50;0.50;;;;;;;;;;5025319;28;20038;-85
2023/10/27 06:05:52;;;;;;;0.43;0.43;;;;;;;;;;5031058;28;20084;-85
2023/10/27 06:08:17;;;;;;;0.98;0.45;;;;;;;;;;5038193;28;20573;-88
2023/10/27 06:10:43;;;;;;;0.60;0.60;;;;;;;;;;5020752;28;20085;-86
2023/10/27 06:13:08;;;;;;;0.55;0.55;;;;;;;;;;5030173;28;20056;-88
2023/10/27 06:15:33;;;;;;;0.65;0.65;;;;;;;;;;5023051;28;20045;-85
2023/10/27 06:17:59;;;;;;;5.65;0.82;;;;;;;;;;5040407;28;20094;-86
2023/10/27 06:20:24;;;;;;;2.75;0.52;;;;;;;;;;5023881;28;20037;-84
2023/10/27 06:22:49;;;;;;;0.43;0.43;;;;;;;;;;5022637;28;20041;-85
2023/10/27 06:25:15;;;;;;;1.65;0.43;;;;;;;;;;5017030;28;20049;-83
2023/10/27 06:27:40;;;;;;;0.40;0.40;;;;;;;;;;5014470;28;20501;-84
2023/10/27 06:30:06;;;;;;;0.40;0.40;;;;;;;;;;5021069;28;20060;-83
2023/10/27 06:32:32;;;;;;;0.40;0.40;;;;;;;;;;5018351;28;20056;-84
2023/10/27 06:34:57;;;;;;;0.40;0.40;;;;;;;;;;5012815;28;20041;-81
2023/10/27 06:37:23;;;;;;;0.43;0.40;;;;;;;;;;5025559;28;20156;-84
2023/10/27 06:39:50;;;;;;;0.50;0.50;;;;;;;;;;5016498;28;20053;-84
2023/10/27 06:42:15;;;;;;;0.30;0.30;;;;;;;;;;5013690;28;20524;-81
2023/10/27 06:44:41;;;;;;;0.40;0.40;;;;;;;;;;5039146;28;20021;-85
2023/10/27 06:47:06;;;;;;;1.77;0.50;;;;;;;;;;5023270;28;20047;-84
2023/10/27 06:49:31;;;;;;;0.40;0.40;;;;;;;;;;5020049;28;20033;-84
2023/10/27 06:51:56;;;;;;;0.43;0.43;;;;;;;;;;5015334;28;20089;-83
2023/10/27 06:54:24;;;;;;;0.47;0.47;;;;;;;;;;5023716;28;20045;-82
2023/10/27 06:56:50;;;;;;;0.28;0.28;;;;;;;;;;5023931;28;20053;-83
2023/10/27 06:59:15;;;;;;;0.88;0.40;;;;;;;;;;5007679;28;20440;-84
2023/10/27 07:01:41;;;;;;;0.38;0.30;;;;;;;;;;5019824;28;20041;-85
2023/10/27 07:04:06;;;;;;;0.30;0.30;;;;;;;;;;5018078;28;20551;-85
2023/10/27 07:06:31;;;;;;;0.30;0.30;;;;;;;;;;5022215;28;20033;-85
2023/10/27 07:08:57;;;;;;;0.25;0.25;;;;;;;;;;5018417;28;20136;-86
2023/10/27 07:11:22;;;;;;;0.20;0.20;;;;;;;;;;5016907;28;20045;-85
2023/10/27 07:13:48;;;;;;;1.75;0.40;;;;;;;;;;5023164;28;20034;-85
2023/10/27 07:16:13;;;;;;;0.35;0.35;;;;;;;;;;5018882;28;20065;-86
2023/10/27 07:18:39;;;;;;;0.30;0.30;;;;;;;;;;5019467;28;20101;-84
2023/10/27 07:21:05;;;;;;;0.20;0.20;;;;;;;;;;5021681;28;20241;-83
2023/10/27 07:23:31;;;;;;;0.38;0.38;;;;;;;;;;5023477;28;20068;-84
2023/10/27 07:25:56;;;;;;;0.20;0.20;;;;;;;;;;5020708;28;20057;-82
2023/10/27 07:28:21;;;;;;;0.20;0.20;;;;;;;;;;5026539;28;20037;-82
2023/10/27 07:30:47;;;;;;;0.30;0.30;;;;;;;;;;5012264;28;20479;-84
2023/10/27 07:33:13;;;;;;;0.20;0.20;;;;;;;;;;5016770;28;20030;-81
2023/10/27 07:35:38;;;;;;;0.30;0.30;;;;;;;;;;5014028;28;20184;-83
2023/10/27 07:38:04;;;;;;;0.30;0.30;;;;;;;;;;5030619;28;20130;-82
2023/10/27 07:40:30;;;;;;;0.45;0.40;;;;;;;;;;5009348;28;20099;-83
2023/10/27 07:42:57;;;;;;;0.30;0.30;;;;;;;;;;5016817;28;20112;-81
2023/10/27 07:45:23;;;;;;;0.40;0.40;;;;;;;;;;5022063;28;20025;-80
2023/10/27 07:47:48;;;;;;;0.28;0.28;;;;;;;;;;5019106;28;20026;-83
2023/10/27 07:50:14;;;;;;;0.40;0.40;;;;;;;;;;5008243;28;20088;-86
2023/10/27 07:52:39;;;;;;;0.20;0.20;;;;;;;;;;5009589;28;20395;-83
2023/10/27 07:55:06;;;;;;;0.35;0.30;;;;;;;;;;5023689;28;20119;-85
2023/10/27 07:57:32;;;;;;;0.20;0.20;;;;;;;;;;5005468;28;20065;-83
2023/10/27 07:59:57;;;;;;;0.35;0.35;;;;;;;;;;5014080;28;20033;-85
2023/10/27 08:02:23;;;;;;;0.43;0.43;;;;;;;;;;5016337;28;20042;-85
2023/10/27 08:04:48;;;;;;;0.30;0.30;;;;;;;;;;5020812;28;20064;-85
2023/10/27 08:07:13;;;;;;;0.40;0.40;;;;;;;;;;5022954;28;20061;-82
2023/10/27 08:09:38;;;;;;;0.50;0.50;;;;;;;;;;5019993;28;20041;-85
2023/10/27 08:12:05;;;;;;;0.50;0.50;;;;;;;;;;5017700;28;20491;-85
2023/10/27 08:14:32;;;;;;;0.47;0.47;;;;;;;;;;5022912;28;20104;-83
2023/10/27 08:16:58;;;;;;;0.50;0.50;;;;;;;;;;5024862;28;20021;-80
2023/10/27 08:19:24;;;;;;;0.50;0.50;;;;;;;;;;5020228;28;20038;-84
2023/10/27 08:21:49;;;;;;;0.60;0.60;;;;;;;;;;5020194;28;20125;-85
2023/10/27 08:24:16;;;;;;;2.38;0.50;;;;;;;;;;5020090;28;20088;-82
2023/10/27 08:26:43;;;;;;;0.50;0.50;;;;;;;;;;5036310;28;20063;-80
2023/10/27 08:29:08;;;;;;;0.35;0.35;;;;;;;;;;5017942;28;20426;-85
2023/10/27 08:31:33;;;;;;;0.50;0.50;;;;;;;;;;5017976;28;20072;-85
2023/10/27 08:33:59;;;;;;;0.45;0.45;;;;;;;;;;5029104;28;20033;-81
2023/10/27 08:36:25;;;;;;;0.68;0.68;;;;;;;;;;5014820;28;20068;-84
2023/10/27 08:38:54;;;;;;;1.58;0.50;;;;;;;;;;5015985;28;20075;-82
2023/10/27 08:41:21;;;;;;;0.65;0.63;;;;;;;;;;5021744;28;20061;-80
2023/10/27 08:43:46;;;;;;;0.98;0.60;;;;;;;;;;5016868;28;20041;-84
2023/10/27 08:46:12;;;;;;;0.80;0.50;;;;;;;;;;5017416;28;20022;-79
2023/10/27 08:48:37;;;;;;;0.47;0.47;;;;;;;;;;5012189;28;20037;-83
2023/10/27 08:51:05;;;;;;;0.35;0.35;;;;;;;;;;5013586;28;20036;-83
2023/10/27 08:53:31;;;;;;;0.38;0.38;;;;;;;;;;5016787;28;20029;-83
2023/10/27 08:55:58;;;;;;;1.15;0.50;;;;;;;;;;5018528;28;20037;-84
2023/10/27 08:58:23;;;;;;;0.43;0.43;;;;;;;;;;5014528;28;20103;-81
2023/10/27 09:00:48;;;;;;;0.32;0.32;;;;;;;;;;5019022;28;20033;-82
2023/10/27 09:03:17;;;;;;;0.60;0.60;;;;;;;;;;5031242;28;20132;-84
2023/10/27 09:05:43;;;;;;;0.40;0.40;;;;;;;;;;5003041;28;20046;-86
2023/10/27 09:08:09;;;;;;;1.70;0.60;;;;;;;;;;5026336;28;20045;-88
2023/10/27 09:10:35;;;;;;;0.55;0.50;;;;;;;;;;5055826;28;20102;-87
2023/10/27 09:13:00;;;;;;;0.70;0.43;;;;;;;;;;5029795;28;20490;-89
2023/10/27 09:15:25;;;;;;;0.45;0.45;;;;;;;;;;5020417;28;20116;-88
2023/10/27 09:17:53;;;;;;;0.50;0.50;;;;;;;;;;5048344;28;20032;-87
2023/10/27 09:20:23;;;;;;;0.40;0.40;;;;;;;;;;5033037;28;20038;-85
2023/10/27 09:22:58;;;;;;;0.30;0.30;;;;;;;;;;5024003;28;20042;-88
2023/10/27 09:25:28;;;;;;;0.40;0.40;;;;;;;;;;5021843;28;20034;-84
2023/10/27 09:27:55;;;;;;;1.08;0.70;;;;;;;;;;5050979;23;20045;-78
2023/10/27 09:30:35;;;;;;;0.90;0.50;;;;;;;;;;5034813;28;20028;-76
2023/10/27 09:33:23;;;;;;;0.75;0.60;;;;;;;;;;5037201;28;20575;-76
2023/10/27 09:35:51;;;;;;;1.20;1.00;;;;;;;;;;5036590;28;20516;-78
2023/10/27 09:38:17;;;;;;;0.55;0.55;;;;;;;;;;5035249;28;20348;-78
2023/10/27 09:40:45;;;;;;;1.05;0.68;;;;;;;;;;5023822;28;20099;-75
2023/10/27 09:43:23;;;;;;;1.08;0.55;;;;;;;;;;5030200;28;20045;-78
2023/10/27 09:45:53;;;;;;;0.65;0.50;;;;;;;;;;5024200;28;20037;-78
2023/10/27 09:48:24;;;;;;;2.25;0.80;;;;;;;;;;5026634;28;20033;-78
2023/10/27 09:50:58;;;;;;;0.40;0.40;;;;;;;;;;5042345;28;20041;-78
2023/10/27 09:53:26;;;;;;;0.40;0.40;;;;;;;;;;5037294;28;20081;-78
2023/10/27 09:55:52;;;;;;;0.68;0.55;;;;;;;;;;5034718;28;20044;-77
2023/10/27 09:58:20;;;;;;;0.93;0.50;;;;;;;;;;5032895;28;20037;-77
2023/10/27 10:00:46;;;;;;;2.28;0.52;;;;;;;;;;5034139;28;20041;-77
2023/10/27 10:03:11;;;;;;;4.13;0.73;;;;;;;;;;5038813;28;20020;-77
2023/10/27 10:06:12;;;;;;;0.73;0.60;;;;;;;;;;5037489;28;20023;-78
2023/10/27 10:08:38;;;;;;;1.63;0.60;;;;;;;;;;5003434;28;20083;-77
2023/10/27 10:11:12;;;;;;;0.40;0.40;;;;;;;;;;5037954;28;20033;-77
2023/10/27 10:13:37;;;;;;;0.50;0.50;;;;;;;;;;5040099;28;20335;-77
2023/10/27 10:16:03;;;;;;;0.60;0.60;;;;;;;;;;5037599;28;20040;-77
2023/10/27 10:18:35;;;;;;;1.00;0.57;;;;;;;;;;5036883;28;20334;-77
2023/10/27 10:21:01;;;;;;;0.40;0.40;;;;;;;;;;5037003;28;20415;-77
2023/10/27 10:23:40;;;;;;;0.70;0.50;;;;;;;;;;5031516;28;20115;-77
2023/10/27 10:26:06;;;;;;;2.85;1.35;;;;;;;;;;5032504;28;20066;-77
2023/10/27 10:28:36;;;;;;;2.60;0.68;;;;;;;;;;5038663;28;20044;-76
2023/10/27 10:31:07;;;;;;;0.57;0.57;;;;;;;;;;5035144;28;20040;-77
2023/10/27 10:33:34;;;;;;;0.52;0.52;;;;;;;;;;5040538;28;20677;-77
2023/10/27 10:36:17;;;;;;;0.40;0.40;;;;;;;;;;5040218;28;20025;-77
2023/10/27 10:39:04;;;;;;;0.60;0.60;;;;;;;;;;5036956;28;20103;-77
2023/10/27 10:41:42;;;;;;;3.88;0.80;;;;;;;;;;5038075;28;20566;-77
2023/10/27 10:44:17;;;;;;;5.57;0.80;;;;;;;;;;5040945;28;20129;-77
2023/10/27 10:46:44;;;;;;;1.35;0.73;;;;;;;;;;5038208;28;20333;-77
2023/10/27 10:49:10;;;;;;;1.45;0.75;;;;;;;;;;5040232;28;20060;-76
2023/10/27 10:51:37;;;;;;;1.98;0.55;;;;;;;;;;5041537;28;20535;-78
2023/10/27 10:54:08;;;;;;;1.85;0.75;;;;;;;;;;5033241;28;20522;-77
2023/10/27 10:56:33;;;;;;;0.57;0.50;;;;;;;;;;5036105;28;20087;-77
2023/10/27 10:59:03;;;;;;;3.97;0.50;;;;;;;;;;5040416;28;20048;-77
2023/10/27 11:01:28;;;;;;;0.60;0.60;;;;;;;;;;5032934;28;20044;-77
2023/10/27 11:03:54;;;;;;;2.15;0.55;;;;;;;;;;5038300;28;20037;-77
2023/10/27 11:06:21;;;;;;;0.70;0.70;;;;;;;;;;5037115;28;20394;-77
2023/10/27 11:08:46;;;;;;;18.63;0.85;;;;;;;;;;5041570;28;20043;-77
2023/10/27 11:11:21;;;;;;;0.82;0.52;;;;;;;;;;5039311;28;20025;-77
2023/10/27 11:13:49;;;;;;;2.28;0.45;;;;;;;;;;5036677;28;20380;-77
2023/10/27 11:16:23;;;;;;;0.90;0.50;;;;;;;;;;5039434;28;20400;-77
2023/10/27 11:18:57;;;;;;;0.55;0.55;;;;;;;;;;5032946;28;20120;-77
2023/10/27 11:21:27;;;;;;;0.60;0.60;;;;;;;;;;5036495;28;20024;-77
2023/10/27 11:23:53;;;;;;;0.70;0.57;;;;;;;;;;5038890;28;20021;-77
2023/10/27 11:26:41;;;;;;;1.15;0.80;;;;;;;;;;5037329;28;20044;-77
2023/10/27 11:29:07;;;;;;;1.50;0.68;;;;;;;;;;5034592;28;20037;-77
2023/10/27 11:31:39;;;;;;;0.60;0.60;;;;;;;;;;5032373;28;20560;-77
2023/10/27 11:34:05;;;;;;;0.73;0.57;;;;;;;;;;5032233;28;20037;-77
2023/10/27 11:36:35;;;;;;;1.27;0.60;;;;;;;;;;5037580;28;20442;-77
2023/10/27 11:39:21;;;;;;;3.67;0.68;;;;;;;;;;5036631;28;20044;-77
2023/10/27 11:41:55;;;;;;;1.55;0.60;;;;;;;;;;5036784;28;20041;-77
2023/10/27 11:44:21;;;;;;;2.15;0.90;;;;;;;;;;5036209;28;20128;-77
2023/10/27 11:46:48;;;;;;;3.13;0.70;;;;;;;;;;5033882;28;20487;-77
2023/10/27 11:49:14;;;;;;;3.60;0.70;;;;;;;;;;5034740;28;20505;-77
2023/10/27 11:51:42;;;;;;;1.65;0.80;;;;;;;;;;5037049;28;20033;-77
2023/10/27 11:54:07;;;;;;;1.30;0.40;;;;;;;;;;5038372;28;20464;-76
2023/10/27 11:56:32;;;;;;;0.60;0.60;;;;;;;;;;5038967;28;20025;-77
2023/10/27 11:58:58;;;;;;;1.60;0.68;;;;;;;;;;5039550;28;20083;-77
2023/10/27 12:01:23;;;;;;;2.55;0.65;;;;;;;;;;5036025;28;20044;-77
2023/10/27 12:03:48;;;;;;;0.65;0.60;;;;;;;;;;5039221;28;20523;-76
2023/10/27 12:06:14;;;;;;;2.97;1.10;;;;;;;;;;5031383;28;20029;-77
2023/10/27 12:08:39;;;;;;;1.00;0.52;;;;;;;;;;5041384;28;20567;-76
2023/10/27 12:11:04;;;;;;;2.33;1.10;;;;;;;;;;5040136;28;20447;-77
2023/10/27 12:13:29;;;;;;;1.17;0.63;;;;;;;;;;5038296;28;20152;-77
2023/10/27 12:15:55;;;;;;;0.95;0.50;;;;;;;;;;5039025;28;20060;-77
2023/10/27 12:18:20;;;;;;;1.25;0.70;;;;;;;;;;5030035;28;20374;-76
2023/10/27 12:20:46;;;;;;;0.40;0.40;;;;;;;;;;5019224;28;20029;-77
2023/10/27 12:23:11;;;;;;;0.77;0.30;;;;;;;;;;5031798;28;20115;-77
2023/10/27 12:25:37;;;;;;;0.60;0.60;;;;;;;;;;5030019;28;20674;-77
2023/10/27 12:28:02;;;;;;;0.40;0.40;;;;;;;;;;5030085;28;20050;-77
2023/10/27 12:30:28;;;;;;;1.10;0.50;;;;;;;;;;5030739;28;20420;-77
2023/10/27 12:32:53;;;;;;;0.55;0.52;;;;;;;;;;5031214;28;20037;-77
2023/10/27 12:35:22;;;;;;;0.43;0.43;;;;;;;;;;5030840;28;20083;-77
2023/10/27 12:37:53;;;;;;;0.40;0.38;;;;;;;;;;5027929;28;20064;-77
2023/10/27 12:40:19;;;;;;;2.42;0.40;;;;;;;;;;5030458;28;20050;-77
2023/10/27 12:42:44;;;;;;;0.80;0.47;;;;;;;;;;5032393;28;20063;-77
2023/10/27 12:45:12;;;;;;;0.30;0.30;;;;;;;;;;5009493;28;20487;-77
2023/10/27 12:47:40;;;;;;;2.53;0.60;;;;;;;;;;5019477;28;20502;-76
2023/10/27 12:50:06;;;;;;;0.30;0.30;;;;;;;;;;5019261;28;20088;-77
2023/10/27 12:52:31;;;;;;;0.43;0.40;;;;;;;;;;5021975;28;20535;-77
2023/10/27 12:54:56;;;;;;;1.55;0.50;;;;;;;;;;5019381;28;20505;-77
2023/10/27 12:57:24;;;;;;;0.85;0.60;;;;;;;;;;5021205;28;20093;-77
2023/10/27 12:59:52;;;;;;;0.30;0.30;;;;;;;;;;5017243;28;20049;-77
2023/10/27 13:02:17;;;;;;;0.47;0.47;;;;;;;;;;5016508;28;20033;-77
2023/10/27 13:04:42;;;;;;;0.55;0.47;;;;;;;;;;5024835;28;20037;-77
2023/10/27 13:07:07;;;;;;;0.50;0.50;;;;;;;;;;5021736;28;20576;-77
2023/10/27 13:09:33;;;;;;;0.55;0.55;;;;;;;;;;5022592;28;20064;-77
2023/10/27 13:11:58;;;;;;;0.50;0.50;;;;;;;;;;5023037;28;20116;-77
2023/10/27 13:14:23;;;;;;;0.40;0.40;;;;;;;;;;5025225;28;20418;-77
2023/10/27 13:16:49;;;;;;;0.50;0.50;;;;;;;;;;5021344;28;20049;-77
2023/10/27 13:19:18;;;;;;;0.75;0.68;;;;;;;;;;5028143;28;20509;-77
2023/10/27 13:21:44;;;;;;;0.40;0.40;;;;;;;;;;5031530;28;20275;-77
2023/10/27 13:24:09;;;;;;;1.52;0.60;;;;;;;;;;5022983;28;20037;-77
2023/10/27 13:26:35;;;;;;;0.30;0.30;;;;;;;;;;5033729;28;20479;-77
2023/10/27 13:29:00;;;;;;;1.75;0.60;;;;;;;;;;5017878;28;20448;-77
2023/10/27 13:31:26;;;;;;;1.10;0.70;;;;;;;;;;5018337;28;20426;-77
2023/10/27 13:33:53;;;;;;;0.50;0.50;;;;;;;;;;5021486;28;20171;-77
2023/10/27 13:36:19;;;;;;;0.75;0.43;;;;;;;;;;5016277;28;20025;-76
2023/10/27 13:38:44;;;;;;;0.47;0.47;;;;;;;;;;5023816;28;20027;-76
2023/10/27 13:41:20;;;;;;;0.40;0.40;;;;;;;;;;5033987;28;20367;-78
2023/10/27 13:43:46;;;;;;;0.57;0.57;;;;;;;;;;5032316;28;20068;-77
2023/10/27 13:46:14;;;;;;;0.60;0.60;;;;;;;;;;5001007;28;20092;-77
2023/10/27 13:48:42;;;;;;;0.60;0.60;;;;;;;;;;5028522;28;20109;-78
2023/10/27 13:51:11;;;;;;;1.58;0.80;;;;;;;;;;5023687;28;20073;-78
2023/10/27 13:53:37;;;;;;;0.77;0.60;;;;;;;;;;5028202;28;20021;-77
2023/10/27 13:56:03;;;;;;;1.35;0.90;;;;;;;;;;5020463;28;20041;-78
2023/10/27 13:58:29;;;;;;;0.82;0.82;;;;;;;;;;5033700;28;20036;-78
2023/10/27 14:00:55;;;;;;;1.08;0.80;;;;;;;;;;5030497;28;20236;-77
2023/10/27 14:03:21;;;;;;;0.93;0.70;;;;;;;;;;5026317;28;20082;-78
2023/10/27 14:05:49;;;;;;;0.70;0.70;;;;;;;;;;5032400;28;20025;-78
2023/10/27 14:08:14;;;;;;;0.75;0.68;;;;;;;;;;5028271;28;20056;-78
2023/10/27 14:10:40;;;;;;;3.03;0.90;;;;;;;;;;5029502;28;20044;-78
2023/10/27 14:13:05;;;;;;;0.50;0.50;;;;;;;;;;5024798;28;20056;-79
2023/10/27 14:15:32;;;;;;;2.15;0.77;;;;;;;;;;5018965;28;20162;-78
2023/10/27 14:17:58;;;;;;;0.40;0.40;;;;;;;;;;5024305;28;20029;-78
2023/10/27 14:20:23;;;;;;;0.52;0.52;;;;;;;;;;5025024;28;20590;-78
2023/10/27 14:22:48;;;;;;;1.65;0.70;;;;;;;;;;5015302;28;20198;-78
2023/10/27 14:25:13;;;;;;;0.50;0.50;;;;;;;;;;5017404;28;21509;-78
2023/10/27 14:27:39;;;;;;;2.95;0.75;;;;;;;;;;5012100;28;22513;-78
2023/10/27 14:30:05;;;;;;;1.13;0.90;;;;;;;;;;5012592;28;20087;-78
2023/10/27 14:32:31;;;;;;;1.45;0.80;;;;;;;;;;5008592;28;20028;-78
2023/10/27 14:34:56;;;;;;;0.60;0.60;;;;;;;;;;5011670;28;20284;-78
2023/10/27 14:37:22;;;;;;;3.25;0.80;;;;;;;;;;5013098;28;20432;-78
2023/10/27 14:39:48;;;;;;;0.85;0.80;;;;;;;;;;5015049;28;20045;-78